サル島 の空港の天気 - METARとTAF

アミルカル・カブラル国際空港 ( GVAC / SID ) - カーボベルデ サル島
飛行場実況気象(Metar)
観測時間02/16 18:00 CVT (02/16 19:00 UTC)
風向・風速北東 9m/s
視程10km以上
天気現象
全天の8割程度の雲 雲底高度 430m
全天の8割程度の雲 雲底高度 6100m
気温22℃
湿度65%
気圧1017hPa
METARGVAC 161900Z 05017KT 9999 BKN014 BKN200 22/15 Q1017 NOSIG
過去の天気等 Google飛行場航空写真 Wunderground天気予報

過去48時間のMETAR

飛行場予報(TAF)
発表時間: 2/17 10:00 CVT (2/17 11:00 UTC)
予報対象時間: 17日11時 CVT ~ 18日17時 CVT
風向・風速北東 9m/s
視程10km以上
全天の4割程度の雲 雲底高度 430m
17日11時 CVT ~ 17日17時 CVT に一時的に
風向・風速北東 9m/s 瞬間風速 14m/s
全天の8割程度の雲 雲底高度 430m
TAF GVAC 171100Z 1712/1818 05018KT 9999 SCT014
TEMPO 1712/1718 05018G28KT BKN014